Time;durP1;ratioP1;P1;durP2;ratioP2;P2;SDS_P1;SDS_P2;PMS_P1;PMS_P2;Temp;Humidity;BMP_temperature;BMP_pressure;BME280_temperature;BME280_humidity;BME280_pressure;Samples;Min_cycle;Max_cycle;Signal;HPM_P1;HPM_P2
2022/06/03 00:02:07;;;;;;;3.65;3.35;;;;;;;10.97;72.22;100612.22;10495436;28;20059;-69
2022/06/03 00:07:27;;;;;;;3.33;3.00;;;;;;;11.15;71.33;100610.91;10500054;28;20135;-69
2022/06/03 00:12:50;;;;;;;3.90;2.90;;;;;;;10.77;72.57;100609.22;10499299;28;20040;-69
2022/06/03 00:18:25;;;;;;;3.10;2.83;;;;;;;10.92;71.47;100600.94;10499767;28;20041;-70
2022/06/03 00:23:27;;;;;;;3.25;2.95;;;;;;;10.43;74.16;100612.59;10498981;28;20496;-70
2022/06/03 00:28:50;;;;;;;2.90;2.70;;;;;;;10.73;72.35;100607.56;10498732;28;20131;-70
2022/06/03 00:34:25;;;;;;;2.90;2.70;;;;;;;10.24;74.27;100616.50;10497208;28;20041;-70
2022/06/03 00:39:39;;;;;;;2.88;2.67;;;;;;;10.11;75.38;100622.00;10494716;28;20052;-70
2022/06/03 00:45:04;;;;;;;3.80;2.85;;;;;;;10.34;74.84;100610.16;10503415;28;20044;-70
2022/06/03 00:50:43;;;;;;;3.63;3.20;;;;;;;10.13;75.29;100616.69;10504988;28;20056;-69
2022/06/03 00:56:11;;;;;;;2.70;2.50;;;;;;;10.00;76.43;100608.19;10504809;28;20505;-70
2022/06/03 01:01:47;;;;;;;2.95;2.70;;;;;;;10.14;75.49;100607.94;10495965;28;20132;-70
2022/06/03 01:07:07;;;;;;;2.60;2.40;;;;;;;10.18;74.68;100600.84;10500520;28;20071;-70
2022/06/03 01:12:44;;;;;;;2.80;2.60;;;;;;;9.91;75.80;100604.88;10505450;28;20047;-70
2022/06/03 01:18:10;;;;;;;3.25;2.63;;;;;;;9.72;76.67;100594.75;10499238;28;20080;-70
2022/06/03 01:23:25;;;;;;;3.03;2.72;;;;;;;9.68;77.09;100600.09;10503417;28;20059;-70
2022/06/03 01:28:52;;;;;;;3.10;2.80;;;;;;;9.91;76.12;100597.00;10504081;28;20051;-70
2022/06/03 01:34:18;;;;;;;3.20;2.70;;;;;;;9.65;77.10;100593.16;10504390;28;20094;-69
2022/06/03 01:39:23;;;;;;;3.10;2.90;;;;;;;9.51;78.44;100590.78;10503648;28;20050;-70
2022/06/03 01:44:25;;;;;;;3.70;3.35;;;;;;;9.56;77.56;100593.31;10502048;28;20113;-70
2022/06/03 01:49:36;;;;;;;3.50;3.20;;;;;;;9.39;78.13;100588.41;10502655;28;20444;-70
2022/06/03 01:54:41;;;;;;;3.92;3.53;;;;;;;9.30;77.74;100580.69;10503905;28;20048;-69
2022/06/03 01:59:59;;;;;;;3.92;3.60;;;;;;;9.48;76.96;100580.34;10502612;28;20048;-69
2022/06/03 02:05:24;;;;;;;4.18;3.28;;;;;;;9.18;78.78;100570.41;10502249;28;20040;-69
2022/06/03 02:10:41;;;;;;;4.05;2.80;;;;;;;9.18;78.44;100573.88;10501160;28;20102;-70
2022/06/03 02:16:03;;;;;;;4.18;3.13;;;;;;;9.13;78.47;100570.50;10512520;28;20075;-72
2022/06/03 02:21:37;;;;;;;5.78;3.50;;;;;;;9.04;78.86;100560.16;10501033;28;20143;-73
2022/06/03 02:26:48;;;;;;;3.35;3.00;;;;;;;9.00;79.16;100561.97;10482928;28;20083;-73
2022/06/03 02:31:53;;;;;;;3.83;3.60;;;;;;;8.86;79.86;100561.34;10500159;28;20549;-73
2022/06/03 02:37:09;;;;;;;7.65;4.72;;;;;;;8.89;79.63;100558.63;10498770;28;20055;-69
2022/06/03 02:42:34;;;;;;;6.13;5.53;;;;;;;8.95;79.59;100569.03;10513767;22;20029;-72
2022/06/03 02:48:21;;;;;;;9.73;4.88;;;;;;;9.20;77.79;100566.84;10500731;28;20041;-72
2022/06/03 02:53:44;;;;;;;5.60;5.00;;;;;;;8.98;77.73;100568.97;10499915;28;20044;-72
2022/06/03 02:59:20;;;;;;;6.72;5.53;;;;;;;8.72;79.43;100569.41;10499831;28;20045;-71
2022/06/03 03:04:43;;;;;;;6.80;6.18;;;;;;;8.76;79.01;100563.22;10499457;28;20040;-71
2022/06/03 03:10:06;;;;;;;7.28;6.57;;;;;;;8.92;77.66;100563.84;10498126;28;20045;-71
2022/06/03 03:15:14;;;;;;;6.88;6.25;;;;;;;8.77;78.19;100570.22;10497755;28;20040;-71
2022/06/03 03:20:39;;;;;;;6.75;6.03;;;;;;;8.66;79.76;100572.13;10498733;28;20048;-70
2022/06/03 03:26:05;;;;;;;8.43;5.97;;;;;;;8.63;80.41;100573.91;10498683;28;20036;-71
2022/06/03 03:31:13;;;;;;;8.23;6.78;;;;;;;8.90;78.51;100577.84;10498712;28;20047;-70
2022/06/03 03:36:44;;;;;;;6.97;6.22;;;;;;;8.91;79.02;100572.59;10498482;28;20083;-70
2022/06/03 03:42:07;;;;;;;6.45;5.85;;;;;;;8.95;78.75;100591.78;10498229;28;20040;-70
2022/06/03 03:47:36;;;;;;;6.55;5.95;;;;;;;8.76;80.29;100584.19;10497294;28;20052;-70
2022/06/03 03:52:40;;;;;;;4.93;4.38;;;;;;;8.74;80.27;100587.72;10498385;28;20044;-71
2022/06/03 03:58:09;;;;;;;5.43;4.65;;;;;;;9.16;77.01;100585.28;10499236;28;20474;-71
2022/06/03 04:03:52;;;;;;;5.97;5.38;;;;;;;9.10;77.50;100584.50;10497304;28;20053;-71
2022/06/03 04:09:13;;;;;;;6.20;4.57;;;;;;;9.07;78.46;100600.31;10496612;28;20037;-70
2022/06/03 04:14:53;;;;;;;4.30;3.97;;;;;;;9.32;77.33;100602.50;10497495;28;20041;-70
2022/06/03 04:20:09;;;;;;;4.03;3.72;;;;;;;9.52;76.16;100602.16;10505675;28;20409;-72
2022/06/03 04:25:26;;;;;;;2.90;2.70;;;;;;;9.75;75.06;100599.09;10504672;28;20490;-70
2022/06/03 04:31:09;;;;;;;2.90;2.70;;;;;;;9.71;74.48;100589.53;10505385;28;20504;-71
2022/06/03 04:36:46;;;;;;;3.03;2.75;;;;;;;10.13;73.32;100586.94;10500470;28;20056;-71
2022/06/03 04:41:53;;;;;;;;;;;;;;;10.46;71.32;100586.25;10506195;28;20412;-71
2022/06/03 04:47:32;;;;;;;3.40;3.10;;;;;;;10.57;70.50;100580.72;10504754;28;19921;-71
2022/06/03 04:52:36;;;;;;;2.88;2.53;;;;;;;10.56;70.57;100573.75;10504617;28;20107;-71
2022/06/03 04:57:56;;;;;;;2.47;2.28;;;;;;;10.78;69.94;100582.00;10503660;28;20049;-71
2022/06/03 05:03:17;;;;;;;4.03;3.05;;;;;;;10.74;69.65;100582.97;10502761;28;20041;-71
2022/06/03 05:08:49;;;;;;;3.03;2.60;;;;;;;11.53;67.26;100569.56;10504926;28;20098;-71
2022/06/03 05:14:00;;;;;;;2.53;2.33;;;;;;;11.84;66.43;100564.34;10504342;28;20508;-71
2022/06/03 05:19:01;;;;;;;2.42;2.22;;;;;;;12.10;64.32;100566.22;10504131;28;20052;-71
2022/06/03 05:24:30;;;;;;;1.90;1.80;;;;;;;12.18;62.79;100573.91;10504360;28;20037;-71
2022/06/03 05:30:03;;;;;;;2.38;2.17;;;;;;;12.75;62.59;100563.34;10502644;28;20127;-71
2022/06/03 05:35:27;;;;;;;1.73;1.63;;;;;;;13.25;59.50;100558.16;10503894;28;20478;-71
2022/06/03 05:40:37;;;;;;;1.52;1.42;;;;;;;14.04;57.77;100549.16;10503614;28;20121;-71
2022/06/03 05:45:41;;;;;;;2.80;1.50;;;;;;;14.46;55.84;100548.41;10502899;28;20490;-71
2022/06/03 05:50:47;;;;;;;7.85;1.75;;;;;;;15.13;53.77;100542.16;10502439;28;20501;-72
2022/06/03 05:56:07;;;;;;;1.95;1.23;;;;;;;15.75;52.48;100545.66;10502423;28;20048;-71
2022/06/03 06:01:33;;;;;;;2.85;1.50;;;;;;;16.14;50.92;100533.22;10501681;28;20049;-72
2022/06/03 06:06:54;;;;;;;1.48;1.20;;;;;;;16.86;48.77;100523.59;10502851;28;20401;-71
2022/06/03 06:12:24;;;;;;;1.30;1.20;;;;;;;17.11;49.24;100526.75;10501897;28;20127;-71
2022/06/03 06:17:54;;;;;;;2.42;1.33;;;;;;;16.96;48.69;100518.72;10501341;28;20060;-71
2022/06/03 06:23:04;;;;;;;1.52;1.30;;;;;;;17.61;46.58;100509.09;10501976;28;20051;-72
2022/06/03 06:28:43;;;;;;;2.15;1.42;;;;;;;17.80;48.76;100507.22;10501483;28;20048;-71
2022/06/03 06:34:22;;;;;;;2.17;1.55;;;;;;;18.16;45.63;100492.84;10500355;28;20137;-71
2022/06/03 06:39:51;;;;;;;2.08;1.00;;;;;;;18.22;45.94;100486.31;10499667;28;20409;-71
2022/06/03 06:45:27;;;;;;;1.50;1.10;;;;;;;19.15;44.60;100487.06;10499265;28;20064;-71
2022/06/03 06:50:50;;;;;;;3.88;1.40;;;;;;;19.21;44.36;100477.84;10456610;28;20061;-71
2022/06/03 06:56:15;;;;;;;2.50;0.95;;;;;;;19.57;44.24;100477.44;10454435;28;20045;-71
2022/06/03 07:01:26;;;;;;;2.95;0.90;;;;;;;19.80;43.93;100468.00;10455076;28;20156;-71
2022/06/03 07:06:47;;;;;;;1.85;1.00;;;;;;;20.32;43.03;100454.00;10454259;28;20053;-71
2022/06/03 07:12:04;;;;;;;1.40;1.00;;;;;;;20.72;41.82;100453.16;10453868;28;20093;-71
2022/06/03 07:22:51;;;;;;;1.17;1.00;;;;;;;20.81;41.45;100436.53;10456558;28;20060;-70
2022/06/03 07:28:09;;;;;;;1.77;0.97;;;;;;;20.68;42.58;100435.66;10499209;28;20059;-70
2022/06/03 07:33:37;;;;;;;1.45;0.80;;;;;;;21.00;41.65;100425.44;10498742;28;20048;-72
2022/06/03 07:39:02;;;;;;;1.17;0.63;;;;;;;21.49;41.40;100420.22;10497598;28;20045;-71
2022/06/03 07:44:24;;;;;;;0.88;0.80;;;;;;;21.58;41.81;100410.69;10497225;28;20044;-71
2022/06/03 07:49:28;;;;;;;0.55;0.50;;;;;;;22.19;40.53;100400.88;10498463;28;20045;-71
2022/06/03 07:54:35;;;;;;;2.95;0.82;;;;;;;22.51;39.40;100390.44;10497462;28;20045;-71
2022/06/03 07:59:40;;;;;;;1.13;0.60;;;;;;;22.46;39.42;100387.25;10498475;28;20497;-71
2022/06/03 08:04:43;;;;;;;0.57;0.57;;;;;;;22.86;40.14;100378.84;10497932;28;20036;-71
2022/06/03 08:15:22;;;;;;;0.98;0.55;;;;;;;23.95;38.92;100372.88;10497769;28;20040;-71
2022/06/03 08:20:26;;;;;;;1.55;0.57;;;;;;;23.50;37.09;100364.88;10498298;28;20057;-71
2022/06/03 08:25:33;;;;;;;2.30;0.70;;;;;;;23.57;38.33;100360.72;10497294;28;20044;-71
2022/06/03 08:30:35;;;;;;;0.68;0.50;;;;;;;23.97;37.62;100363.72;10497088;28;20048;-71
2022/06/03 08:35:43;;;;;;;0.50;0.50;;;;;;;23.84;38.48;100373.75;10497467;28;20048;-70
2022/06/03 08:41:01;;;;;;;1.35;0.60;;;;;;;24.40;37.19;100370.91;10497169;28;20460;-70
2022/06/03 08:46:24;;;;;;;1.35;0.70;;;;;;;24.86;37.06;100359.78;10512371;22;20084;-76
2022/06/03 08:51:50;;;;;;;0.95;0.80;;;;;;;24.81;37.96;100355.78;10504355;28;20044;-75
2022/06/03 08:57:16;;;;;;;1.77;0.65;;;;;;;24.95;36.46;100360.81;10501349;28;20036;-75
2022/06/03 09:02:24;;;;;;;;;;;;;;;25.31;35.76;100353.22;10477450;28;20143;-74
2022/06/03 09:07:38;;;;;;;0.88;0.70;;;;;;;25.28;36.23;100345.41;10480775;28;20373;-75
2022/06/03 09:12:47;;;;;;;2.22;0.55;;;;;;;25.71;36.07;100339.75;10466021;28;20040;-76
2022/06/03 09:18:05;;;;;;;1.20;0.70;;;;;;;25.83;33.32;100333.28;10489852;28;20041;-75
2022/06/03 09:23:10;;;;;;;1.70;0.60;;;;;;;26.40;32.97;100337.00;10442832;28;20055;-76
2022/06/03 09:28:17;;;;;;;2.23;0.60;;;;;;;25.42;33.98;100328.91;10424444;28;20041;-75
2022/06/03 09:33:21;;;;;;;1.25;0.60;;;;;;;25.85;32.94;100335.84;10428493;28;20046;-75
2022/06/03 09:38:26;;;;;;;0.57;0.57;;;;;;;26.20;31.74;100326.34;10426218;28;20422;-75
2022/06/03 09:43:35;;;;;;;1.60;0.63;;;;;;;26.57;32.02;100318.44;10426020;28;20056;-75
2022/06/03 09:48:37;;;;;;;1.98;0.70;;;;;;;27.08;33.01;100319.81;10426178;28;20049;-75
2022/06/03 09:53:42;;;;;;;1.35;0.70;;;;;;;27.02;31.66;100312.34;10423586;28;20053;-75
2022/06/03 09:58:45;;;;;;;1.25;0.60;;;;;;;27.26;33.08;100325.31;10425644;28;20053;-75
2022/06/03 10:03:54;;;;;;;1.75;0.98;;;;;;;27.51;31.41;100321.09;10422511;28;20050;-75
2022/06/03 10:14:16;;;;;;;3.08;0.80;;;;;;;27.91;29.69;100310.75;10423076;28;20044;-75
2022/06/03 10:19:17;;;;;;;1.40;0.70;;;;;;;27.76;32.39;100304.19;10425421;28;20038;-75
2022/06/03 10:24:23;;;;;;;1.77;0.68;;;;;;;27.76;31.34;100319.53;10421788;28;20045;-75
2022/06/03 10:29:27;;;;;;;1.15;0.60;;;;;;;27.78;31.93;100306.72;10422983;28;20042;-74
2022/06/03 10:34:36;;;;;;;2.50;0.70;;;;;;;27.89;32.33;100291.16;10423040;28;20049;-74
2022/06/03 10:39:43;;;;;;;1.52;0.60;;;;;;;28.14;31.95;100308.41;10425533;28;20518;-75
2022/06/03 10:44:48;;;;;;;1.50;0.73;;;;;;;28.40;33.10;100300.41;10426248;28;20081;-75
2022/06/03 10:49:57;;;;;;;1.50;0.60;;;;;;;28.66;32.07;100286.88;10426731;28;20049;-76
2022/06/03 11:05:55;;;;;;;1.08;0.70;;;;;;;28.98;32.22;100260.22;10428979;28;20067;-75
2022/06/03 11:10:59;;;;;;;2.75;0.75;;;;;;;28.88;30.38;100254.88;10426034;28;20049;-75
2022/06/03 11:16:21;;;;;;;1.70;0.90;;;;;;;29.18;30.57;100250.00;10426806;28;20037;-75
2022/06/03 11:21:29;;;;;;;2.15;0.80;;;;;;;28.51;31.08;100237.13;10425719;28;20072;-75
2022/06/03 11:26:37;;;;;;;1.67;0.80;;;;;;;28.68;30.70;100229.91;10427678;28;20085;-75
2022/06/03 11:31:43;;;;;;;2.28;0.82;;;;;;;28.51;32.56;100231.69;10426831;28;20050;-75
2022/06/03 11:36:58;;;;;;;1.42;0.82;;;;;;;28.67;31.08;100215.53;10426158;28;20063;-76
2022/06/03 11:42:11;;;;;;;1.17;0.70;;;;;;;28.74;31.86;100198.69;10423887;28;20053;-75
2022/06/03 11:47:23;;;;;;;0.75;0.70;;;;;;;28.95;32.17;100184.72;10426162;28;20084;-74
2022/06/03 11:52:25;;;;;;;2.38;0.77;;;;;;;29.04;30.87;100173.81;10422158;28;20079;-75
2022/06/03 11:57:28;;;;;;;1.10;0.90;;;;;;;28.73;31.80;100176.22;10425430;28;20052;-74
2022/06/03 12:02:44;;;;;;;1.15;0.90;;;;;;;29.19;31.35;100167.75;10422817;28;20091;-75
2022/06/03 12:08:11;;;;;;;1.23;0.90;;;;;;;28.61;30.84;100156.69;10426299;28;20045;-74
2022/06/03 12:13:26;;;;;;;3.33;0.90;;;;;;;28.73;30.88;100153.69;10424605;28;20083;-76
2022/06/03 12:18:32;;;;;;;2.15;0.80;;;;;;;29.13;31.12;100147.59;10409606;28;20045;-75
2022/06/03 12:23:38;;;;;;;1.48;0.60;;;;;;;29.40;32.06;100139.19;10411633;28;20108;-75
2022/06/03 12:28:45;;;;;;;0.85;0.80;;;;;;;29.05;30.58;100137.63;10423670;28;20423;-74
2022/06/03 12:34:13;;;;;;;1.35;0.63;;;;;;;29.25;30.68;100135.44;10423306;28;20057;-75
2022/06/03 12:39:18;;;;;;;2.55;0.63;;;;;;;28.88;32.54;100131.28;10424375;28;20099;-75
2022/06/03 12:44:23;;;;;;;3.90;0.80;;;;;;;29.57;31.65;100126.56;10428554;28;20057;-75
2022/06/03 12:49:35;;;;;;;1.23;0.75;;;;;;;29.40;31.14;100116.69;10428845;28;20042;-75
2022/06/03 12:54:50;;;;;;;0.73;0.50;;;;;;;29.60;31.29;100111.81;10433186;28;20103;-74
2022/06/03 12:59:59;;;;;;;1.48;0.95;;;;;;;29.55;31.00;100103.31;10431263;28;20558;-76
2022/06/03 13:05:27;;;;;;;1.73;0.80;;;;;;;29.67;30.40;100110.13;10429487;28;20048;-76
2022/06/03 13:10:50;;;;;;;1.58;0.70;;;;;;;29.17;30.21;100116.47;10441812;28;20128;-76
2022/06/03 13:15:52;;;;;;;2.25;0.70;;;;;;;29.20;30.19;100105.31;10433637;28;20136;-76
2022/06/03 13:20:57;;;;;;;1.95;0.70;;;;;;;29.27;30.72;100100.94;10435486;28;20050;-74
2022/06/03 13:26:27;;;;;;;1.77;1.00;;;;;;;29.13;30.13;100094.31;10430042;28;20491;-75
2022/06/03 13:31:41;;;;;;;0.70;0.70;;;;;;;28.71;30.57;100083.53;10428584;28;20038;-75
2022/06/03 13:36:49;;;;;;;1.33;0.73;;;;;;;28.49;31.22;100082.28;10430141;28;20072;-75
2022/06/03 13:47:32;;;;;;;0.65;0.60;;;;;;;28.18;30.20;100081.94;10426806;28;20045;-75
2022/06/03 13:52:40;;;;;;;0.75;0.70;;;;;;;27.89;31.21;100066.94;10424910;28;20099;-74
2022/06/03 13:57:51;;;;;;;1.35;0.80;;;;;;;28.25;31.34;100061.38;10428265;28;20045;-75
2022/06/03 14:03:16;;;;;;;1.17;0.70;;;;;;;28.48;30.46;100071.63;10424670;28;20056;-75
2022/06/03 14:08:25;;;;;;;1.42;0.70;;;;;;;28.88;30.56;100071.75;10425658;28;20042;-74
2022/06/03 14:13:42;;;;;;;1.02;0.60;;;;;;;28.52;28.96;100063.03;10425582;28;20037;-74
2022/06/03 14:19:01;;;;;;;1.73;0.60;;;;;;;28.53;29.62;100070.13;10427179;28;20041;-74
2022/06/03 14:24:36;;;;;;;1.23;0.60;;;;;;;28.65;31.79;100071.53;10426494;28;20049;-74
2022/06/03 14:29:44;;;;;;;2.25;0.68;;;;;;;28.71;30.50;100051.06;10425618;28;20084;-75
2022/06/03 14:34:50;;;;;;;0.68;0.65;;;;;;;28.54;30.57;100054.75;10424541;28;20047;-74
2022/06/03 14:39:52;;;;;;;0.88;0.68;;;;;;;28.80;29.56;100060.06;10404590;28;20136;-76
2022/06/03 14:44:54;;;;;;;0.63;0.57;;;;;;;29.06;30.83;100059.97;10466350;22;20044;-69
2022/06/03 14:50:19;;;;;;;1.42;0.65;;;;;;;28.95;28.96;100058.38;10498538;28;20045;-69
2022/06/03 14:55:42;;;;;;;;;;;;;;;29.13;30.22;100053.72;10499423;28;20045;-70
2022/06/03 15:01:06;;;;;;;1.73;1.38;;;;;;;29.53;29.60;100040.31;10498934;28;19920;-69
2022/06/03 15:06:15;;;;;;;1.10;0.70;;;;;;;29.32;29.54;100036.31;10499772;28;20032;-69
2022/06/03 15:11:44;;;;;;;0.77;0.68;;;;;;;29.36;29.22;100034.09;10499459;28;20041;-69
2022/06/03 15:16:56;;;;;;;0.98;0.68;;;;;;;28.96;29.87;100016.84;10497076;28;20040;-69
2022/06/03 15:21:58;;;;;;;1.20;0.80;;;;;;;28.36;31.13;100014.31;10498045;28;20135;-69
2022/06/03 15:27:00;;;;;;;2.65;0.77;;;;;;;28.19;32.50;100007.94;10498389;28;20048;-69
2022/06/03 15:32:02;;;;;;;1.35;0.80;;;;;;;28.54;31.65;100004.22;10498243;28;20047;-69
2022/06/03 15:37:04;;;;;;;1.50;0.60;;;;;;;29.27;31.01;99991.81;10488891;28;20033;-69
2022/06/03 15:42:21;;;;;;;1.35;0.73;;;;;;;29.37;30.94;99971.66;10477249;28;20053;-70
2022/06/03 15:47:31;;;;;;;1.30;1.10;;;;;;;29.90;30.19;99967.47;10486048;28;20044;-70
2022/06/03 15:52:44;;;;;;;1.65;1.55;;;;;;;29.98;29.82;99966.59;10460721;28;20450;-69
2022/06/03 15:58:08;;;;;;;0.77;0.75;;;;;;;29.62;29.70;99955.38;10470678;28;20041;-69
2022/06/03 16:03:25;;;;;;;2.53;0.80;;;;;;;28.91;30.56;99955.06;10455995;28;20051;-69
2022/06/03 16:08:42;;;;;;;1.30;0.63;;;;;;;29.25;31.67;99948.66;10457099;28;20055;-69
2022/06/03 16:14:19;;;;;;;2.70;0.90;;;;;;;28.60;32.49;99945.94;10478469;28;20119;-69
2022/06/03 16:19:39;;;;;;;2.28;0.80;;;;;;;28.45;32.12;99947.59;10462706;28;20051;-69
2022/06/03 16:24:52;;;;;;;2.08;1.00;;;;;;;28.07;33.02;99945.25;10462598;28;20067;-69
2022/06/03 16:29:59;;;;;;;1.80;1.00;;;;;;;27.91;32.88;99945.19;10464180;28;20043;-69
2022/06/03 16:35:17;;;;;;;1.15;1.00;;;;;;;27.63;33.77;99941.84;10463499;28;20041;-69
2022/06/03 16:40:38;;;;;;;0.95;0.90;;;;;;;27.29;34.34;99960.69;10463760;28;20040;-68
2022/06/03 16:46:20;;;;;;;1.17;0.90;;;;;;;26.90;34.83;99959.16;10482076;28;20054;-69
2022/06/03 16:52:02;;;;;;;1.38;1.02;;;;;;;26.55;35.13;99967.25;10462630;28;20095;-69
2022/06/03 16:57:14;;;;;;;1.02;0.93;;;;;;;26.62;35.50;99962.97;10458754;28;20071;-70
2022/06/03 17:02:22;;;;;;;1.17;1.00;;;;;;;26.60;35.59;99968.47;10462802;28;20498;-70
2022/06/03 17:07:38;;;;;;;1.75;1.20;;;;;;;26.49;35.72;99957.94;10462244;28;20041;-70
2022/06/03 17:12:47;;;;;;;1.15;0.80;;;;;;;26.43;35.14;99958.53;10460564;28;20170;-70
2022/06/03 17:17:49;;;;;;;1.52;0.90;;;;;;;26.21;35.88;99962.50;10461812;28;20110;-70
2022/06/03 17:23:25;;;;;;;1.52;1.08;;;;;;;26.18;35.31;99954.72;10461528;28;20057;-69
2022/06/03 17:28:59;;;;;;;2.42;1.10;;;;;;;25.99;35.88;99961.06;10461044;28;20040;-69
2022/06/03 17:34:20;;;;;;;1.42;1.00;;;;;;;25.90;36.23;99948.50;10454370;28;20057;-70
2022/06/03 17:39:54;;;;;;;2.25;1.15;;;;;;;26.01;36.04;99948.28;10461156;28;20044;-70
2022/06/03 17:45:10;;;;;;;1.80;1.20;;;;;;;25.84;37.37;99957.16;10473579;28;20127;-69
2022/06/03 17:50:19;;;;;;;2.20;0.93;;;;;;;25.72;36.00;99943.00;10465390;28;20083;-69
2022/06/03 17:55:34;;;;;;;2.47;1.02;;;;;;;25.63;36.54;99942.06;10460441;28;20415;-71
2022/06/03 18:00:53;;;;;;;1.55;1.20;;;;;;;25.60;36.12;99936.13;10460936;28;20414;-70
2022/06/03 18:06:01;;;;;;;1.80;1.10;;;;;;;25.40;36.78;99933.47;10442474;28;20055;-70
2022/06/03 18:11:34;;;;;;;1.20;1.00;;;;;;;25.42;36.70;99920.72;10460615;28;20383;-70
2022/06/03 18:16:41;;;;;;;4.00;0.93;;;;;;;25.15;37.92;99928.75;10459161;28;20052;-69
2022/06/03 18:22:01;;;;;;;2.55;0.90;;;;;;;24.78;39.29;99936.66;10459784;28;20049;-69
2022/06/03 18:27:08;;;;;;;2.58;1.20;;;;;;;24.51;39.90;99934.69;10459961;28;20386;-69
2022/06/03 18:32:10;;;;;;;2.42;0.90;;;;;;;24.42;40.28;99936.38;10459020;28;20052;-69
2022/06/03 18:37:49;;;;;;;5.03;1.30;;;;;;;24.14;40.95;99949.59;10458603;28;20056;-69
2022/06/03 18:43:14;;;;;;;1.63;0.80;;;;;;;24.04;41.14;99951.41;10458349;28;20506;-69
2022/06/03 18:48:31;;;;;;;1.80;0.80;;;;;;;23.94;41.70;99960.41;10477427;28;20037;-69
2022/06/03 18:54:07;;;;;;;2.25;1.00;;;;;;;23.70;42.31;99963.41;10456657;28;20432;-69
2022/06/03 18:59:37;;;;;;;1.52;1.02;;;;;;;23.77;42.01;99978.81;10458012;28;20048;-69
2022/06/03 19:05:04;;;;;;;1.05;0.80;;;;;;;23.70;41.91;99977.69;10457595;28;20053;-69
2022/06/03 19:10:37;;;;;;;1.67;1.15;;;;;;;23.45;42.50;99975.41;10456482;28;20047;-69
2022/06/03 19:15:48;;;;;;;1.50;0.88;;;;;;;23.47;42.88;99990.38;10458197;28;20043;-69
2022/06/03 19:20:56;;;;;;;2.95;0.90;;;;;;;23.30;42.98;99994.50;10457219;28;20045;-69
2022/06/03 19:25:58;;;;;;;5.20;1.10;;;;;;;23.23;43.21;99993.31;10468395;28;20103;-69
2022/06/03 19:31:10;;;;;;;1.52;0.88;;;;;;;23.13;43.92;99989.72;10456756;28;20055;-69
2022/06/03 19:36:41;;;;;;;2.53;1.00;;;;;;;23.24;43.15;100002.22;10456419;28;20099;-69
2022/06/03 19:42:28;;;;;;;3.60;1.10;;;;;;;22.95;43.99;99997.50;10456633;28;20409;-69
2022/06/03 19:47:38;;;;;;;1.10;0.90;;;;;;;22.87;44.08;100014.19;10473672;28;20494;-69
2022/06/03 19:52:43;;;;;;;4.28;1.08;;;;;;;22.94;44.17;100000.31;10456273;28;20578;-69
2022/06/03 19:57:49;;;;;;;2.90;1.55;;;;;;;22.70;44.61;99995.97;10456760;28;20103;-69
2022/06/03 20:03:19;;;;;;;1.10;1.00;;;;;;;22.70;44.55;100004.00;10456594;28;20041;-69
2022/06/03 20:08:47;;;;;;;1.45;1.10;;;;;;;22.55;45.33;99994.56;10454992;28;20044;-69
2022/06/03 20:13:53;;;;;;;0.93;0.88;;;;;;;22.40;45.75;99986.81;10482907;28;20414;-70
2022/06/03 20:18:56;;;;;;;1.65;1.00;;;;;;;22.44;45.18;99974.00;10496656;28;20051;-70
2022/06/03 20:24:07;;;;;;;1.13;0.85;;;;;;;22.35;45.34;99975.59;10494469;28;20385;-70
2022/06/03 20:29:19;;;;;;;1.13;0.90;;;;;;;22.29;45.42;99975.28;10497223;28;20033;-70
2022/06/03 20:34:26;;;;;;;1.88;1.10;;;;;;;22.21;45.71;99985.75;10497873;28;20207;-69
2022/06/03 20:40:08;;;;;;;1.52;1.02;;;;;;;22.11;46.06;99975.75;10497738;28;20044;-70
2022/06/03 20:45:21;;;;;;;1.90;1.60;;;;;;;21.87;46.89;99973.22;10508629;22;20045;-76
2022/06/03 20:50:31;;;;;;;2.15;1.15;;;;;;;21.86;47.59;99970.66;10502764;28;20382;-76
2022/06/03 20:55:36;;;;;;;1.65;1.42;;;;;;;21.57;48.80;99973.84;10459463;28;20048;-76
2022/06/03 21:00:39;;;;;;;1.77;1.50;;;;;;;21.42;49.73;99972.34;10464997;28;20076;-76
2022/06/03 21:16:25;;;;;;;2.47;2.00;;;;;;;21.16;50.85;99961.81;10465717;28;20056;-76
2022/06/03 21:21:38;;;;;;;1.75;1.48;;;;;;;21.09;50.43;99949.88;10482227;28;20544;-77
2022/06/03 21:26:41;;;;;;;2.08;1.52;;;;;;;21.13;50.82;99959.38;10466988;28;20056;-77
2022/06/03 21:32:27;;;;;;;1.63;1.48;;;;;;;21.07;50.88;99950.97;10466399;28;20041;-77
2022/06/03 21:37:36;;;;;;;2.90;1.30;;;;;;;21.01;50.96;99962.97;10339647;28;20055;-76
2022/06/03 21:43:22;;;;;;;1.80;1.30;;;;;;;20.99;51.28;99959.59;10321941;28;20077;-77
2022/06/03 21:48:35;;;;;;;;;;;;;;;20.87;51.66;99964.03;10330343;28;20060;-77
2022/06/03 21:53:59;;;;;;;2.25;1.40;;;;;;;20.82;51.61;99979.56;10339434;28;19964;-77
2022/06/03 21:59:34;;;;;;;3.95;1.65;;;;;;;20.77;51.51;99978.22;10321810;28;20105;-76
2022/06/03 22:04:37;;;;;;;4.07;2.40;;;;;;;20.64;51.99;99972.94;10336724;28;20077;-76
2022/06/03 22:09:39;;;;;;;2.50;2.10;;;;;;;20.60;52.17;99972.31;10320218;28;20070;-76
2022/06/03 22:14:41;;;;;;;2.97;2.55;;;;;;;20.58;52.82;99971.53;10458660;28;20144;-77
2022/06/03 22:19:43;;;;;;;1.58;1.40;;;;;;;20.53;53.08;99967.53;10462507;28;20051;-78
2022/06/03 22:24:45;;;;;;;2.28;1.50;;;;;;;20.55;54.47;99977.13;10464342;28;20049;-77
2022/06/03 22:29:52;;;;;;;1.77;1.35;;;;;;;20.54;55.42;99987.91;10464475;28;20071;-77
2022/06/03 22:35:13;;;;;;;2.75;2.03;;;;;;;20.52;57.64;99992.53;10466218;28;20108;-78
2022/06/03 22:40:40;;;;;;;2.20;2.00;;;;;;;20.80;58.13;99994.00;10468963;28;20049;-78
2022/06/03 22:45:42;;;;;;;2.70;2.10;;;;;;;20.26;61.51;100027.28;10449209;28;20056;-79
2022/06/03 22:50:44;;;;;;;4.20;1.98;;;;;;;19.97;60.80;100045.38;10468919;28;20124;-79
2022/06/03 22:55:46;;;;;;;3.25;1.90;;;;;;;19.63;63.23;100047.72;10474960;28;20052;-79
2022/06/03 23:00:48;;;;;;;2.17;1.98;;;;;;;19.56;65.18;100057.06;10475987;28;20115;-78
2022/06/03 23:05:50;;;;;;;1.70;1.60;;;;;;;19.58;66.51;100063.16;10476757;28;20069;-79
2022/06/03 23:10:52;;;;;;;2.33;2.13;;;;;;;19.30;68.41;100064.19;10477351;28;20041;-79
2022/06/03 23:15:53;;;;;;;5.40;2.08;;;;;;;19.36;69.67;100066.44;10467152;28;20073;-77
2022/06/03 23:20:56;;;;;;;2.45;2.15;;;;;;;19.13;72.33;100072.47;10480489;28;20051;-77
2022/06/03 23:26:18;;;;;;;3.80;2.67;;;;;;;19.21;73.41;100082.59;10461768;28;20056;-78
2022/06/03 23:31:22;;;;;;;3.03;2.83;;;;;;;18.88;74.88;100075.88;10468087;28;20055;-77
2022/06/03 23:36:26;;;;;;;3.00;2.60;;;;;;;18.70;78.52;100085.06;10468428;28;20075;-78
2022/06/03 23:46:50;;;;;;;4.50;3.28;;;;;;;18.37;81.15;100089.78;10461324;28;20048;-76
2022/06/03 23:51:54;;;;;;;3.20;3.00;;;;;;;18.36;83.62;100087.19;10460703;28;20076;-77
2022/06/03 23:57:01;;;;;;;3.65;3.25;;;;;;;18.43;84.32;100079.69;10462231;28;20486;-75
